Flight Track Log - Related Links

Times and Time Zones

All times are in EDT time to prevent confusion due to time zone crossing. See the FIN666 flight status page for this flight to view local times or setup timezone preferences in your user account.

Time Position Orientation Groundspeed Altitude Reporting Facility
EDT Latitude Longitude Course Direction KTS MPH feet Rate Location/Type
Sat 07:39:00 AM 55.8329 13.1000 49° Northeast  Level Estimated
Sat 07:40:00 AM 55.9042 13.2491 50° Northeast  Level Estimated
Sat 07:41:00 AM 55.9753 13.3988 50° Northeast  Level Estimated
Sat 07:42:00 AM 56.0462 13.5490 50° Northeast  Level Estimated
Sat 07:43:00 AM 56.1170 13.6997 50° Northeast  Level Estimated
Sat 07:44:00 AM 56.1885 13.8532 50° Northeast  Level Estimated
Sat 07:45:00 AM 56.2598 14.0071 50° Northeast  Level Estimated
Sat 07:46:00 AM 56.3310 14.1617 50° Northeast  Level Estimated
Sat 07:47:00 AM 56.4020 14.3169 50° Northeast  Level Estimated
Sat 07:48:00 AM 56.4727 14.4726 51° Northeast  Level Estimated
Sat 07:49:00 AM 56.5433 14.6289 51° Northeast  Level Estimated
Sat 07:50:00 AM 56.6137 14.7858 51° Northeast  Level Estimated
Sat 07:51:00 AM 56.6839 14.9432 51° Northeast  Level Estimated
Sat 07:52:00 AM 56.7538 15.1013 51° Northeast  Level Estimated
Sat 07:53:00 AM 56.8236 15.2599 51° Northeast  Level Estimated
Sat 07:54:00 AM 56.8932 15.4192 51° Northeast  Level Estimated
Sat 07:55:00 AM 56.9557 15.5630 51° Northeast  Level Estimated
Sat 07:56:00 AM 57.0179 15.7073 52° Northeast  Level Estimated
Sat 07:57:00 AM 57.0800 15.8521 52° Northeast  Level Estimated
Sat 07:58:00 AM 57.1420 15.9973 52° Northeast  Level Estimated
Sat 07:59:00 AM 57.2038 16.1431 52° Northeast  Level Estimated
Sat 08:00:00 AM 57.2654 16.2894 52° Northeast  Level Estimated
Sat 08:01:00 AM 57.3268 16.4361 52° Northeast  Level Estimated
Sat 08:02:00 AM 57.3881 16.5833 52° Northeast  Level Estimated
Sat 08:03:00 AM 57.4492 16.7310 52° Northeast  Level Estimated
Sat 08:04:00 AM 57.5101 16.8792 53° Northeast  Level Estimated
Sat 08:05:00 AM 57.5709 17.0280 53° Northeast  Level Estimated
Sat 08:06:00 AM 57.6314 17.1772 53° Northeast  Level Estimated
Sat 08:07:00 AM 57.6918 17.3269 53° Northeast  Level Estimated
Sat 08:08:00 AM 57.7520 17.4771 53° Northeast  Level Estimated
Sat 08:09:00 AM 57.8121 17.6278 53° Northeast  Level Estimated
Sat 08:10:00 AM 57.8719 17.7790 53° Northeast  Level Estimated
Sat 08:11:00 AM 57.9316 17.9307 53° Northeast  Level Estimated
Sat 08:12:00 AM 57.9911 18.0829 54° Northeast  Level Estimated
Sat 08:13:00 AM 58.0504 18.2356 54° Northeast  Level Estimated
Sat 08:14:00 AM 58.1096 18.3888 54° Northeast  Level Estimated
Sat 08:15:00 AM 58.1685 18.5425 54° Northeast  Level Estimated
Sat 08:16:00 AM 58.2273 18.6968 54° Northeast  Level Estimated
Sat 08:17:00 AM 58.2859 18.8515 54° Northeast  Level Estimated
Sat 08:18:00 AM 58.3442 19.0068 54° Northeast  Level Estimated
Sat 08:19:00 AM 58.4025 19.1626 54° Northeast  Level Estimated
Sat 08:20:00 AM 58.4605 19.3189 55° Northeast  Level Estimated
Sat 08:21:00 AM 58.5183 19.4757 55° Northeast  Level Estimated
Sat 08:22:00 AM 58.5759 19.6330 55° Northeast  Level Estimated
Sat 08:23:00 AM 58.6334 19.7908 55° Northeast  Level Estimated
Sat 08:24:00 AM 58.6906 19.9492 55° Northeast  Level Estimated
Sat 08:25:00 AM 58.7476 20.1081 55° Northeast  Level Estimated
Sat 08:26:00 AM 58.8045 20.2675 55° Northeast  Level Estimated
Sat 08:27:00 AM 58.8611 20.4274 56° Northeast  Level Estimated
Sat 08:28:00 AM 58.9176 20.5879 56° Northeast  Level Estimated
Sat 08:29:00 AM 58.9810 20.7693 56° Northeast  Level Estimated
Sat 08:30:00 AM 59.0441 20.9514 56° Northeast  Level Estimated
Sat 08:31:00 AM 59.1070 21.1341 56° Northeast  Level Estimated
Sat 08:32:00 AM 59.1696 21.3175 56° Northeast  Level Estimated
Sat 08:33:00 AM 59.2319 21.5016 56° Northeast  Level Estimated
Sat 08:34:00 AM 59.2940 21.6864 57° Northeast  Level Estimated
Sat 08:35:00 AM 59.3558 21.8718 57° Northeast  Level Estimated
Sat 08:36:00 AM 59.4174 22.0579 57° Northeast  Level Estimated
Sat 08:37:00 AM 59.4787 22.2447 57° Northeast  Level Estimated
Sat 08:38:00 AM 59.5397 22.4322 57° Northeast  Level Estimated
Sat 08:39:00 AM 59.6004 22.6203 57° Northeast  Level Estimated
Sat 08:40:00 AM 59.6609 22.8092 58° Northeast  Level Estimated
Sat 08:41:00 AM 59.7211 22.9987 58° Northeast  Level Estimated
Sat 08:42:00 AM 59.7811 23.1889 58° Northeast  Level Estimated
Sat 08:43:00 AM 59.8408 23.3797 58° Northeast  Level Estimated
Sat 08:44:00 AM 59.9001 23.5713 58° Northeast  Level Estimated
Sat 08:45:00 AM 59.9593 23.7635 58° Northeast  Level Estimated
Sat 08:46:00 AM 60.0181 23.9565 59° Northeast  Level Estimated
Sat 08:47:00 AM 60.0766 24.1501 59° Northeast  Level Estimated
Sat 08:48:00 AM 60.1349 24.3444 59° Northeast  Level Estimated
Sat 08:49:00 AM 60.1928 24.5394 59° Northeast  Level Estimated
Sat 08:50:00 AM 60.2531 24.7437 59° Northeast  Level Estimated
Sat 08:51:00 AM 60.3130 24.9488 59° Northeast  Level Estimated
Sat 08:52:00 AM 60.3172 24.9633 60° Northeast  Level Estimated
Sat 08:53:00 AM 60.3172 24.9633 North  Level Estimated
Sat 08:54:00 AM 60.3172 24.9633 North  Level Estimated
Sat 08:55:00 AM 60.3172 24.9633 North  Level Estimated
Sat 08:56:00 AM 60.3172 24.9633 North  Level Estimated
Sat 08:57:00 AM 60.3172 24.9633 North  Level Estimated
Sat 08:58:00 AM 60.3172 24.9633 North  Level Estimated

Login

Don't have an account? Register now (free) for customized features, flight alerts, and more!